sensor_id;sensor_type;location;lat;lon;timestamp;P1;durP1;ratioP1;P2;durP2;ratioP2
7929;SDS011;4010;42.698;23.124;2023-04-25T00:02:24;1.00;;;0.80;;
7929;SDS011;4010;42.698;23.124;2023-04-25T00:04:50;1.27;;;1.17;;
7929;SDS011;4010;42.698;23.124;2023-04-25T00:07:19;1.37;;;0.97;;
7929;SDS011;4010;42.698;23.124;2023-04-25T00:09:46;1.20;;;1.10;;
7929;SDS011;4010;42.698;23.124;2023-04-25T00:12:12;2.80;;;1.80;;
7929;SDS011;4010;42.698;23.124;2023-04-25T00:14:40;5.50;;;2.10;;
7929;SDS011;4010;42.698;23.124;2023-04-25T00:17:07;5.20;;;2.30;;
7929;SDS011;4010;42.698;23.124;2023-04-25T00:19:34;3.60;;;2.00;;
7929;SDS011;4010;42.698;23.124;2023-04-25T00:22:02;2.67;;;2.27;;
7929;SDS011;4010;42.698;23.124;2023-04-25T00:24:31;3.53;;;2.47;;
7929;SDS011;4010;42.698;23.124;2023-04-25T00:26:58;5.47;;;2.40;;
7929;SDS011;4010;42.698;23.124;2023-04-25T00:29:25;3.10;;;2.47;;
7929;SDS011;4010;42.698;23.124;2023-04-25T00:31:51;2.40;;;2.03;;
7929;SDS011;4010;42.698;23.124;2023-04-25T00:34:18;1.73;;;1.63;;
7929;SDS011;4010;42.698;23.124;2023-04-25T00:36:45;1.80;;;1.70;;
7929;SDS011;4010;42.698;23.124;2023-04-25T00:39:11;3.43;;;1.70;;
7929;SDS011;4010;42.698;23.124;2023-04-25T00:41:40;3.10;;;2.20;;
7929;SDS011;4010;42.698;23.124;2023-04-25T00:44:08;2.10;;;1.90;;
7929;SDS011;4010;42.698;23.124;2023-04-25T00:46:36;2.83;;;2.27;;
7929;SDS011;4010;42.698;23.124;2023-04-25T00:49:03;2.20;;;2.10;;
7929;SDS011;4010;42.698;23.124;2023-04-25T00:51:29;3.70;;;2.10;;
7929;SDS011;4010;42.698;23.124;2023-04-25T00:53:57;2.50;;;1.83;;
7929;SDS011;4010;42.698;23.124;2023-04-25T00:56:23;1.90;;;1.80;;
7929;SDS011;4010;42.698;23.124;2023-04-25T00:58:52;2.07;;;1.70;;
7929;SDS011;4010;42.698;23.124;2023-04-25T01:01:21;2.10;;;1.90;;
7929;SDS011;4010;42.698;23.124;2023-04-25T01:03:48;1.67;;;1.57;;
7929;SDS011;4010;42.698;23.124;2023-04-25T01:06:16;1.70;;;1.60;;
7929;SDS011;4010;42.698;23.124;2023-04-25T01:08:43;1.53;;;1.43;;
7929;SDS011;4010;42.698;23.124;2023-04-25T01:11:09;3.40;;;1.50;;
7929;SDS011;4010;42.698;23.124;2023-04-25T01:13:36;1.70;;;1.60;;
7929;SDS011;4010;42.698;23.124;2023-04-25T01:16:05;3.00;;;1.83;;
7929;SDS011;4010;42.698;23.124;2023-04-25T01:18:31;2.73;;;1.50;;
7929;SDS011;4010;42.698;23.124;2023-04-25T01:21:03;2.23;;;1.63;;
7929;SDS011;4010;42.698;23.124;2023-04-25T01:23:35;1.80;;;1.70;;
7929;SDS011;4010;42.698;23.124;2023-04-25T01:26:02;1.80;;;1.70;;
7929;SDS011;4010;42.698;23.124;2023-04-25T01:28:29;2.20;;;2.03;;
7929;SDS011;4010;42.698;23.124;2023-04-25T01:30:56;2.93;;;2.30;;
7929;SDS011;4010;42.698;23.124;2023-04-25T01:33:23;2.40;;;2.20;;
7929;SDS011;4010;42.698;23.124;2023-04-25T01:35:50;2.90;;;2.70;;
7929;SDS011;4010;42.698;23.124;2023-04-25T01:38:19;3.10;;;2.80;;
7929;SDS011;4010;42.698;23.124;2023-04-25T01:40:45;3.10;;;2.83;;
7929;SDS011;4010;42.698;23.124;2023-04-25T01:43:12;3.07;;;2.87;;
7929;SDS011;4010;42.698;23.124;2023-04-25T01:45:40;3.37;;;3.00;;
7929;SDS011;4010;42.698;23.124;2023-04-25T01:48:06;3.87;;;2.97;;
7929;SDS011;4010;42.698;23.124;2023-04-25T01:50:33;3.17;;;2.70;;
7929;SDS011;4010;42.698;23.124;2023-04-25T01:53:00;3.47;;;3.17;;
7929;SDS011;4010;42.698;23.124;2023-04-25T01:55:29;3.20;;;2.90;;
7929;SDS011;4010;42.698;23.124;2023-04-25T01:57:56;3.63;;;3.33;;
7929;SDS011;4010;42.698;23.124;2023-04-25T02:00:23;6.03;;;3.93;;
7929;SDS011;4010;42.698;23.124;2023-04-25T02:02:50;4.83;;;3.87;;
7929;SDS011;4010;42.698;23.124;2023-04-25T02:05:18;5.73;;;4.73;;
7929;SDS011;4010;42.698;23.124;2023-04-25T02:07:47;6.10;;;4.83;;
7929;SDS011;4010;42.698;23.124;2023-04-25T02:10:13;5.57;;;4.83;;
7929;SDS011;4010;42.698;23.124;2023-04-25T02:12:41;9.70;;;5.37;;
7929;SDS011;4010;42.698;23.124;2023-04-25T02:15:08;7.10;;;5.53;;
7929;SDS011;4010;42.698;23.124;2023-04-25T02:17:36;8.97;;;6.43;;
7929;SDS011;4010;42.698;23.124;2023-04-25T02:20:03;6.43;;;5.83;;
7929;SDS011;4010;42.698;23.124;2023-04-25T02:22:30;9.13;;;6.97;;
7929;SDS011;4010;42.698;23.124;2023-04-25T02:24:57;8.10;;;6.83;;
7929;SDS011;4010;42.698;23.124;2023-04-25T02:27:23;9.57;;;7.20;;
7929;SDS011;4010;42.698;23.124;2023-04-25T02:29:51;9.10;;;8.10;;
7929;SDS011;4010;42.698;23.124;2023-04-25T02:32:18;8.13;;;7.33;;
7929;SDS011;4010;42.698;23.124;2023-04-25T02:34:45;9.13;;;7.27;;
7929;SDS011;4010;42.698;23.124;2023-04-25T02:37:13;8.33;;;7.53;;
7929;SDS011;4010;42.698;23.124;2023-04-25T02:39:39;10.20;;;8.43;;
7929;SDS011;4010;42.698;23.124;2023-04-25T02:42:06;8.03;;;7.20;;
7929;SDS011;4010;42.698;23.124;2023-04-25T02:44:33;9.53;;;8.53;;
7929;SDS011;4010;42.698;23.124;2023-04-25T02:47:01;9.10;;;8.20;;
7929;SDS011;4010;42.698;23.124;2023-04-25T02:49:27;8.83;;;7.93;;
7929;SDS011;4010;42.698;23.124;2023-04-25T02:51:54;10.80;;;8.10;;
7929;SDS011;4010;42.698;23.124;2023-04-25T02:54:21;10.47;;;8.40;;
7929;SDS011;4010;42.698;23.124;2023-04-25T02:56:47;10.83;;;8.77;;
7929;SDS011;4010;42.698;23.124;2023-04-25T02:59:14;11.43;;;8.70;;
7929;SDS011;4010;42.698;23.124;2023-04-25T03:01:41;12.57;;;8.23;;
7929;SDS011;4010;42.698;23.124;2023-04-25T03:04:09;9.43;;;7.97;;
7929;SDS011;4010;42.698;23.124;2023-04-25T03:06:36;10.27;;;9.07;;
7929;SDS011;4010;42.698;23.124;2023-04-25T03:09:02;9.47;;;7.87;;
7929;SDS011;4010;42.698;23.124;2023-04-25T03:11:29;10.47;;;9.20;;
7929;SDS011;4010;42.698;23.124;2023-04-25T03:13:56;9.40;;;8.40;;
7929;SDS011;4010;42.698;23.124;2023-04-25T03:16:23;9.00;;;8.00;;
7929;SDS011;4010;42.698;23.124;2023-04-25T03:18:50;10.53;;;7.67;;
7929;SDS011;4010;42.698;23.124;2023-04-25T03:21:18;13.77;;;8.37;;
7929;SDS011;4010;42.698;23.124;2023-04-25T03:23:44;11.13;;;7.27;;
7929;SDS011;4010;42.698;23.124;2023-04-25T03:26:11;9.00;;;7.47;;
7929;SDS011;4010;42.698;23.124;2023-04-25T03:28:38;9.53;;;8.10;;
7929;SDS011;4010;42.698;23.124;2023-04-25T03:31:05;9.43;;;8.47;;
7929;SDS011;4010;42.698;23.124;2023-04-25T03:33:31;10.97;;;8.40;;
7929;SDS011;4010;42.698;23.124;2023-04-25T03:35:58;10.37;;;8.30;;
7929;SDS011;4010;42.698;23.124;2023-04-25T03:38:26;12.40;;;8.03;;
7929;SDS011;4010;42.698;23.124;2023-04-25T03:40:53;8.73;;;7.93;;
7929;SDS011;4010;42.698;23.124;2023-04-25T03:43:21;9.10;;;8.20;;
7929;SDS011;4010;42.698;23.124;2023-04-25T03:45:47;10.47;;;7.53;;
7929;SDS011;4010;42.698;23.124;2023-04-25T03:48:14;9.03;;;7.13;;
7929;SDS011;4010;42.698;23.124;2023-04-25T03:50:41;7.20;;;6.43;;
7929;SDS011;4010;42.698;23.124;2023-04-25T03:53:08;7.43;;;6.57;;
7929;SDS011;4010;42.698;23.124;2023-04-25T03:55:36;8.23;;;6.40;;
7929;SDS011;4010;42.698;23.124;2023-04-25T03:58:02;7.60;;;6.63;;
7929;SDS011;4010;42.698;23.124;2023-04-25T04:00:30;7.30;;;6.50;;
7929;SDS011;4010;42.698;23.124;2023-04-25T04:02:56;6.47;;;5.73;;
7929;SDS011;4010;42.698;23.124;2023-04-25T04:05:23;7.10;;;5.90;;
7929;SDS011;4010;42.698;23.124;2023-04-25T04:07:50;7.03;;;5.67;;
7929;SDS011;4010;42.698;23.124;2023-04-25T04:10:16;6.20;;;5.53;;
7929;SDS011;4010;42.698;23.124;2023-04-25T04:12:44;5.13;;;4.63;;
7929;SDS011;4010;42.698;23.124;2023-04-25T04:15:11;6.10;;;5.47;;
7929;SDS011;4010;42.698;23.124;2023-04-25T04:17:38;9.30;;;4.77;;
7929;SDS011;4010;42.698;23.124;2023-04-25T04:20:06;7.63;;;4.60;;
7929;SDS011;4010;42.698;23.124;2023-04-25T04:22:33;6.40;;;4.63;;
7929;SDS011;4010;42.698;23.124;2023-04-25T04:25:00;5.73;;;4.60;;
7929;SDS011;4010;42.698;23.124;2023-04-25T04:27:27;7.00;;;4.53;;
7929;SDS011;4010;42.698;23.124;2023-04-25T04:29:55;7.47;;;4.53;;
7929;SDS011;4010;42.698;23.124;2023-04-25T04:32:22;5.10;;;4.60;;
7929;SDS011;4010;42.698;23.124;2023-04-25T04:34:50;4.93;;;4.50;;
7929;SDS011;4010;42.698;23.124;2023-04-25T04:37:17;6.07;;;4.70;;
7929;SDS011;4010;42.698;23.124;2023-04-25T04:39:43;7.13;;;4.70;;
7929;SDS011;4010;42.698;23.124;2023-04-25T04:42:11;5.30;;;4.80;;
7929;SDS011;4010;42.698;23.124;2023-04-25T04:44:38;5.27;;;4.13;;
7929;SDS011;4010;42.698;23.124;2023-04-25T04:47:06;6.33;;;4.67;;
7929;SDS011;4010;42.698;23.124;2023-04-25T04:49:33;5.73;;;5.00;;
7929;SDS011;4010;42.698;23.124;2023-04-25T04:52:00;4.03;;;3.73;;
7929;SDS011;4010;42.698;23.124;2023-04-25T04:54:26;5.03;;;4.20;;
7929;SDS011;4010;42.698;23.124;2023-04-25T04:56:53;6.40;;;4.33;;
7929;SDS011;4010;42.698;23.124;2023-04-25T04:59:20;7.90;;;4.87;;
7929;SDS011;4010;42.698;23.124;2023-04-25T05:01:47;5.63;;;4.47;;
7929;SDS011;4010;42.698;23.124;2023-04-25T05:04:15;8.47;;;4.93;;
7929;SDS011;4010;42.698;23.124;2023-04-25T05:06:41;6.70;;;4.17;;
7929;SDS011;4010;42.698;23.124;2023-04-25T05:09:09;7.60;;;5.07;;
7929;SDS011;4010;42.698;23.124;2023-04-25T05:11:36;5.57;;;5.00;;
7929;SDS011;4010;42.698;23.124;2023-04-25T05:14:02;5.57;;;4.60;;
7929;SDS011;4010;42.698;23.124;2023-04-25T05:16:29;6.17;;;5.23;;
7929;SDS011;4010;42.698;23.124;2023-04-25T05:18:55;5.93;;;4.90;;
7929;SDS011;4010;42.698;23.124;2023-04-25T05:21:24;7.57;;;4.63;;
7929;SDS011;4010;42.698;23.124;2023-04-25T05:23:50;4.37;;;3.97;;
7929;SDS011;4010;42.698;23.124;2023-04-25T05:26:17;5.27;;;4.03;;
7929;SDS011;4010;42.698;23.124;2023-04-25T05:28:44;4.77;;;4.37;;
7929;SDS011;4010;42.698;23.124;2023-04-25T05:31:10;4.87;;;4.10;;
7929;SDS011;4010;42.698;23.124;2023-04-25T05:33:37;7.27;;;4.53;;
7929;SDS011;4010;42.698;23.124;2023-04-25T05:36:04;5.03;;;4.23;;
7929;SDS011;4010;42.698;23.124;2023-04-25T05:38:33;5.77;;;4.90;;
7929;SDS011;4010;42.698;23.124;2023-04-25T05:41:00;7.03;;;4.10;;
7929;SDS011;4010;42.698;23.124;2023-04-25T05:43:27;4.80;;;4.23;;
7929;SDS011;4010;42.698;23.124;2023-04-25T05:45:53;6.20;;;3.57;;
7929;SDS011;4010;42.698;23.124;2023-04-25T05:48:20;5.63;;;4.33;;
7929;SDS011;4010;42.698;23.124;2023-04-25T05:50:47;6.37;;;4.67;;
7929;SDS011;4010;42.698;23.124;2023-04-25T05:53:14;6.53;;;4.37;;
7929;SDS011;4010;42.698;23.124;2023-04-25T05:55:42;8.97;;;4.43;;
7929;SDS011;4010;42.698;23.124;2023-04-25T05:58:08;5.43;;;4.93;;
7929;SDS011;4010;42.698;23.124;2023-04-25T06:00:35;6.27;;;3.97;;
7929;SDS011;4010;42.698;23.124;2023-04-25T06:03:02;4.67;;;4.23;;
7929;SDS011;4010;42.698;23.124;2023-04-25T06:05:29;6.73;;;3.80;;
7929;SDS011;4010;42.698;23.124;2023-04-25T06:07:56;4.43;;;4.03;;
7929;SDS011;4010;42.698;23.124;2023-04-25T06:10:23;5.33;;;3.83;;
7929;SDS011;4010;42.698;23.124;2023-04-25T06:12:51;6.10;;;3.70;;
7929;SDS011;4010;42.698;23.124;2023-04-25T06:15:18;3.87;;;3.43;;
7929;SDS011;4010;42.698;23.124;2023-04-25T06:17:44;3.93;;;3.50;;
7929;SDS011;4010;42.698;23.124;2023-04-25T06:20:11;5.40;;;3.97;;
7929;SDS011;4010;42.698;23.124;2023-04-25T06:22:38;4.70;;;3.90;;
7929;SDS011;4010;42.698;23.124;2023-04-25T06:25:05;5.50;;;4.00;;
7929;SDS011;4010;42.698;23.124;2023-04-25T06:27:32;4.67;;;4.17;;
7929;SDS011;4010;42.698;23.124;2023-04-25T06:30:00;5.33;;;4.30;;
7929;SDS011;4010;42.698;23.124;2023-04-25T06:32:27;5.60;;;4.40;;
7929;SDS011;4010;42.698;23.124;2023-04-25T06:34:55;5.33;;;4.23;;
7929;SDS011;4010;42.698;23.124;2023-04-25T06:37:21;5.07;;;4.57;;
7929;SDS011;4010;42.698;23.124;2023-04-25T06:39:48;6.97;;;5.03;;
7929;SDS011;4010;42.698;23.124;2023-04-25T06:42:15;7.20;;;5.07;;
7929;SDS011;4010;42.698;23.124;2023-04-25T06:44:41;6.63;;;4.87;;
7929;SDS011;4010;42.698;23.124;2023-04-25T06:47:09;9.10;;;6.60;;
7929;SDS011;4010;42.698;23.124;2023-04-25T06:49:36;3.90;;;3.40;;
7929;SDS011;4010;42.698;23.124;2023-04-25T06:52:03;4.70;;;3.47;;
7929;SDS011;4010;42.698;23.124;2023-04-25T06:54:30;6.80;;;3.30;;
7929;SDS011;4010;42.698;23.124;2023-04-25T06:56:56;9.33;;;6.97;;
7929;SDS011;4010;42.698;23.124;2023-04-25T06:59:23;9.03;;;3.63;;
7929;SDS011;4010;42.698;23.124;2023-04-25T07:01:50;6.97;;;4.13;;
7929;SDS011;4010;42.698;23.124;2023-04-25T07:04:18;5.87;;;3.60;;
7929;SDS011;4010;42.698;23.124;2023-04-25T07:06:45;6.43;;;3.63;;
7929;SDS011;4010;42.698;23.124;2023-04-25T07:09:13;4.00;;;3.53;;
7929;SDS011;4010;42.698;23.124;2023-04-25T07:11:40;3.33;;;2.97;;
7929;SDS011;4010;42.698;23.124;2023-04-25T07:14:06;5.67;;;3.47;;
7929;SDS011;4010;42.698;23.124;2023-04-25T07:16:33;4.80;;;2.70;;
7929;SDS011;4010;42.698;23.124;2023-04-25T07:19:00;3.13;;;2.70;;
7929;SDS011;4010;42.698;23.124;2023-04-25T07:21:28;3.07;;;2.80;;
7929;SDS011;4010;42.698;23.124;2023-04-25T07:23:56;4.50;;;3.37;;
7929;SDS011;4010;42.698;23.124;2023-04-25T07:26:22;2.93;;;2.73;;
7929;SDS011;4010;42.698;23.124;2023-04-25T07:28:49;3.57;;;2.70;;
7929;SDS011;4010;42.698;23.124;2023-04-25T07:31:16;2.77;;;2.57;;
7929;SDS011;4010;42.698;23.124;2023-04-25T07:33:43;2.80;;;2.57;;
7929;SDS011;4010;42.698;23.124;2023-04-25T07:36:11;3.27;;;2.30;;
7929;SDS011;4010;42.698;23.124;2023-04-25T07:38:39;3.10;;;2.70;;
7929;SDS011;4010;42.698;23.124;2023-04-25T07:41:06;4.23;;;3.67;;
7929;SDS011;4010;42.698;23.124;2023-04-25T07:43:32;3.20;;;3.00;;
7929;SDS011;4010;42.698;23.124;2023-04-25T07:45:59;2.90;;;2.40;;
7929;SDS011;4010;42.698;23.124;2023-04-25T07:48:26;2.40;;;2.20;;
7929;SDS011;4010;42.698;23.124;2023-04-25T07:50:52;3.27;;;2.30;;
7929;SDS011;4010;42.698;23.124;2023-04-25T07:53:19;2.63;;;2.30;;
7929;SDS011;4010;42.698;23.124;2023-04-25T07:55:47;2.30;;;2.10;;
7929;SDS011;4010;42.698;23.124;2023-04-25T07:58:14;2.30;;;2.20;;
7929;SDS011;4010;42.698;23.124;2023-04-25T08:00:41;2.50;;;2.30;;
7929;SDS011;4010;42.698;23.124;2023-04-25T08:03:09;2.17;;;2.00;;
7929;SDS011;4010;42.698;23.124;2023-04-25T08:05:35;2.10;;;1.90;;
7929;SDS011;4010;42.698;23.124;2023-04-25T08:08:02;1.90;;;1.70;;
7929;SDS011;4010;42.698;23.124;2023-04-25T08:10:31;2.00;;;1.90;;
7929;SDS011;4010;42.698;23.124;2023-04-25T08:12:59;2.03;;;1.93;;
7929;SDS011;4010;42.698;23.124;2023-04-25T08:15:26;1.73;;;1.60;;
7929;SDS011;4010;42.698;23.124;2023-04-25T08:17:53;1.77;;;1.67;;
7929;SDS011;4010;42.698;23.124;2023-04-25T08:20:19;1.60;;;1.50;;
7929;SDS011;4010;42.698;23.124;2023-04-25T08:22:46;1.70;;;1.60;;
7929;SDS011;4010;42.698;23.124;2023-04-25T08:25:13;2.10;;;1.93;;
7929;SDS011;4010;42.698;23.124;2023-04-25T08:27:40;2.07;;;1.80;;
7929;SDS011;4010;42.698;23.124;2023-04-25T08:30:09;1.60;;;1.50;;
7929;SDS011;4010;42.698;23.124;2023-04-25T08:32:36;1.60;;;1.50;;
7929;SDS011;4010;42.698;23.124;2023-04-25T08:35:04;2.97;;;1.60;;
7929;SDS011;4010;42.698;23.124;2023-04-25T08:37:31;1.47;;;1.37;;
7929;SDS011;4010;42.698;23.124;2023-04-25T08:39:58;3.67;;;1.87;;
7929;SDS011;4010;42.698;23.124;2023-04-25T08:42:25;1.70;;;1.60;;
7929;SDS011;4010;42.698;23.124;2023-04-25T08:44:53;1.30;;;1.20;;
7929;SDS011;4010;42.698;23.124;2023-04-25T08:47:22;2.67;;;1.83;;
7929;SDS011;4010;42.698;23.124;2023-04-25T08:49:50;1.50;;;1.40;;
7929;SDS011;4010;42.698;23.124;2023-04-25T08:52:21;1.73;;;1.30;;
7929;SDS011;4010;42.698;23.124;2023-04-25T08:54:48;1.30;;;1.13;;
7929;SDS011;4010;42.698;23.124;2023-04-25T08:57:17;1.20;;;1.10;;
7929;SDS011;4010;42.698;23.124;2023-04-25T08:59:45;1.00;;;1.00;;
7929;SDS011;4010;42.698;23.124;2023-04-25T09:02:13;1.53;;;1.43;;
7929;SDS011;4010;42.698;23.124;2023-04-25T09:04:43;1.30;;;1.20;;
7929;SDS011;4010;42.698;23.124;2023-04-25T09:07:10;1.50;;;1.10;;
7929;SDS011;4010;42.698;23.124;2023-04-25T09:09:37;0.83;;;0.83;;
7929;SDS011;4010;42.698;23.124;2023-04-25T09:12:05;1.47;;;1.10;;
7929;SDS011;4010;42.698;23.124;2023-04-25T09:14:31;3.23;;;2.60;;
7929;SDS011;4010;42.698;23.124;2023-04-25T09:16:59;1.67;;;1.30;;
7929;SDS011;4010;42.698;23.124;2023-04-25T09:19:28;1.40;;;1.30;;
7929;SDS011;4010;42.698;23.124;2023-04-25T09:21:57;1.17;;;1.03;;
7929;SDS011;4010;42.698;23.124;2023-04-25T09:24:37;1.27;;;0.90;;
7929;SDS011;4010;42.698;23.124;2023-04-25T09:27:07;0.80;;;0.80;;
7929;SDS011;4010;42.698;23.124;2023-04-25T09:29:35;2.20;;;0.97;;
7929;SDS011;4010;42.698;23.124;2023-04-25T09:32:15;0.90;;;0.90;;
7929;SDS011;4010;42.698;23.124;2023-04-25T09:34:44;4.00;;;1.50;;
7929;SDS011;4010;42.698;23.124;2023-04-25T09:37:16;1.50;;;1.40;;
7929;SDS011;4010;42.698;23.124;2023-04-25T09:39:44;3.37;;;2.00;;
7929;SDS011;4010;42.698;23.124;2023-04-25T09:42:12;2.33;;;1.30;;
7929;SDS011;4010;42.698;23.124;2023-04-25T09:44:41;1.83;;;0.80;;
7929;SDS011;4010;42.698;23.124;2023-04-25T09:47:09;0.83;;;0.80;;
7929;SDS011;4010;42.698;23.124;2023-04-25T09:49:38;1.30;;;0.90;;
7929;SDS011;4010;42.698;23.124;2023-04-25T09:52:07;1.00;;;0.90;;
7929;SDS011;4010;42.698;23.124;2023-04-25T09:54:35;0.60;;;0.60;;
7929;SDS011;4010;42.698;23.124;2023-04-25T09:57:03;0.80;;;0.80;;
7929;SDS011;4010;42.698;23.124;2023-04-25T09:59:38;2.13;;;1.47;;
7929;SDS011;4010;42.698;23.124;2023-04-25T10:02:07;1.10;;;1.00;;
7929;SDS011;4010;42.698;23.124;2023-04-25T10:04:35;5.97;;;1.70;;
7929;SDS011;4010;42.698;23.124;2023-04-25T10:07:02;0.80;;;0.80;;
7929;SDS011;4010;42.698;23.124;2023-04-25T10:09:31;0.80;;;0.80;;
7929;SDS011;4010;42.698;23.124;2023-04-25T10:12:01;1.63;;;1.47;;
7929;SDS011;4010;42.698;23.124;2023-04-25T10:14:29;1.10;;;1.00;;
7929;SDS011;4010;42.698;23.124;2023-04-25T10:16:57;0.80;;;0.80;;
7929;SDS011;4010;42.698;23.124;2023-04-25T10:19:24;1.20;;;1.10;;
7929;SDS011;4010;42.698;23.124;2023-04-25T10:21:52;1.20;;;1.10;;
7929;SDS011;4010;42.698;23.124;2023-04-25T10:24:20;0.80;;;0.80;;
7929;SDS011;4010;42.698;23.124;2023-04-25T10:26:47;0.60;;;0.50;;
7929;SDS011;4010;42.698;23.124;2023-04-25T10:29:22;0.60;;;0.60;;
7929;SDS011;4010;42.698;23.124;2023-04-25T10:31:50;6.73;;;0.67;;
7929;SDS011;4010;42.698;23.124;2023-04-25T10:34:17;7.40;;;3.97;;
7929;SDS011;4010;42.698;23.124;2023-04-25T10:36:48;1.00;;;0.90;;
7929;SDS011;4010;42.698;23.124;2023-04-25T10:39:21;1.20;;;0.80;;
7929;SDS011;4010;42.698;23.124;2023-04-25T10:41:52;1.30;;;1.20;;
7929;SDS011;4010;42.698;23.124;2023-04-25T10:44:22;0.63;;;0.63;;
7929;SDS011;4010;42.698;23.124;2023-04-25T10:46:52;2.10;;;0.40;;
7929;SDS011;4010;42.698;23.124;2023-04-25T10:49:31;0.60;;;0.60;;
7929;SDS011;4010;42.698;23.124;2023-04-25T10:52:18;1.43;;;0.60;;
7929;SDS011;4010;42.698;23.124;2023-04-25T10:54:51;0.90;;;0.60;;
7929;SDS011;4010;42.698;23.124;2023-04-25T10:57:29;0.60;;;0.60;;
7929;SDS011;4010;42.698;23.124;2023-04-25T11:00:01;0.70;;;0.63;;
7929;SDS011;4010;42.698;23.124;2023-04-25T11:02:36;0.80;;;0.80;;
7929;SDS011;4010;42.698;23.124;2023-04-25T11:05:04;0.93;;;0.80;;
7929;SDS011;4010;42.698;23.124;2023-04-25T11:07:34;1.60;;;0.77;;
7929;SDS011;4010;42.698;23.124;2023-04-25T11:10:05;0.50;;;0.50;;
7929;SDS011;4010;42.698;23.124;2023-04-25T11:12:32;1.67;;;0.90;;
7929;SDS011;4010;42.698;23.124;2023-04-25T11:15:02;1.10;;;0.60;;
7929;SDS011;4010;42.698;23.124;2023-04-25T11:17:30;1.40;;;1.00;;
7929;SDS011;4010;42.698;23.124;2023-04-25T11:19:57;0.80;;;0.80;;
7929;SDS011;4010;42.698;23.124;2023-04-25T11:22:23;1.13;;;0.80;;
7929;SDS011;4010;42.698;23.124;2023-04-25T11:24:50;0.50;;;0.50;;
7929;SDS011;4010;42.698;23.124;2023-04-25T11:27:17;1.08;;;0.98;;
7929;SDS011;4010;42.698;23.124;2023-04-25T11:29:44;0.80;;;0.80;;
7929;SDS011;4010;42.698;23.124;2023-04-25T11:32:14;5.07;;;1.00;;
7929;SDS011;4010;42.698;23.124;2023-04-25T11:34:42;1.00;;;0.90;;
7929;SDS011;4010;42.698;23.124;2023-04-25T11:37:10;0.97;;;0.97;;
7929;SDS011;4010;42.698;23.124;2023-04-25T11:39:39;1.10;;;1.00;;
7929;SDS011;4010;42.698;23.124;2023-04-25T11:42:09;1.53;;;1.13;;
7929;SDS011;4010;42.698;23.124;2023-04-25T11:44:35;1.03;;;0.90;;
7929;SDS011;4010;42.698;23.124;2023-04-25T11:47:04;1.77;;;1.10;;
7929;SDS011;4010;42.698;23.124;2023-04-25T11:49:32;1.97;;;1.27;;
7929;SDS011;4010;42.698;23.124;2023-04-25T11:52:00;2.87;;;1.50;;
7929;SDS011;4010;42.698;23.124;2023-04-25T11:54:27;2.50;;;0.90;;
7929;SDS011;4010;42.698;23.124;2023-04-25T11:56:53;1.77;;;0.70;;
7929;SDS011;4010;42.698;23.124;2023-04-25T11:59:22;1.27;;;0.80;;
7929;SDS011;4010;42.698;23.124;2023-04-25T12:01:50;0.60;;;0.60;;
7929;SDS011;4010;42.698;23.124;2023-04-25T12:04:17;1.33;;;0.80;;
7929;SDS011;4010;42.698;23.124;2023-04-25T12:06:47;2.20;;;0.80;;
7929;SDS011;4010;42.698;23.124;2023-04-25T12:09:16;1.10;;;0.83;;
7929;SDS011;4010;42.698;23.124;2023-04-25T12:11:44;2.20;;;0.80;;
7929;SDS011;4010;42.698;23.124;2023-04-25T12:14:11;0.80;;;0.80;;
7929;SDS011;4010;42.698;23.124;2023-04-25T12:16:42;1.17;;;0.77;;
7929;SDS011;4010;42.698;23.124;2023-04-25T12:19:09;1.33;;;0.80;;
7929;SDS011;4010;42.698;23.124;2023-04-25T12:21:39;1.60;;;0.73;;
7929;SDS011;4010;42.698;23.124;2023-04-25T12:24:10;0.80;;;0.80;;
7929;SDS011;4010;42.698;23.124;2023-04-25T12:26:45;1.27;;;1.00;;
7929;SDS011;4010;42.698;23.124;2023-04-25T12:29:17;5.37;;;1.00;;
7929;SDS011;4010;42.698;23.124;2023-04-25T12:31:44;1.00;;;0.83;;
7929;SDS011;4010;42.698;23.124;2023-04-25T12:34:11;1.37;;;0.87;;
7929;SDS011;4010;42.698;23.124;2023-04-25T12:36:38;1.17;;;0.80;;
7929;SDS011;4010;42.698;23.124;2023-04-25T12:39:05;1.10;;;1.00;;
7929;SDS011;4010;42.698;23.124;2023-04-25T12:41:33;4.90;;;2.63;;
7929;SDS011;4010;42.698;23.124;2023-04-25T12:44:00;5.27;;;2.93;;
7929;SDS011;4010;42.698;23.124;2023-04-25T12:46:27;4.07;;;1.57;;
7929;SDS011;4010;42.698;23.124;2023-04-25T12:48:54;7.47;;;2.30;;
7929;SDS011;4010;42.698;23.124;2023-04-25T12:51:21;5.17;;;1.90;;
7929;SDS011;4010;42.698;23.124;2023-04-25T12:53:50;3.87;;;1.37;;
7929;SDS011;4010;42.698;23.124;2023-04-25T12:56:17;4.13;;;1.60;;
7929;SDS011;4010;42.698;23.124;2023-04-25T12:58:45;3.80;;;1.37;;
7929;SDS011;4010;42.698;23.124;2023-04-25T13:01:13;3.50;;;1.60;;
7929;SDS011;4010;42.698;23.124;2023-04-25T13:03:40;4.27;;;2.00;;
7929;SDS011;4010;42.698;23.124;2023-04-25T13:06:07;3.73;;;1.50;;
7929;SDS011;4010;42.698;23.124;2023-04-25T13:08:34;2.10;;;1.90;;
7929;SDS011;4010;42.698;23.124;2023-04-25T13:11:01;2.33;;;2.13;;
7929;SDS011;4010;42.698;23.124;2023-04-25T13:13:28;2.50;;;1.20;;
7929;SDS011;4010;42.698;23.124;2023-04-25T13:15:58;1.60;;;1.50;;
7929;SDS011;4010;42.698;23.124;2023-04-25T13:18:24;1.43;;;1.30;;
7929;SDS011;4010;42.698;23.124;2023-04-25T13:20:51;1.93;;;1.30;;
7929;SDS011;4010;42.698;23.124;2023-04-25T13:23:18;2.67;;;2.10;;
7929;SDS011;4010;42.698;23.124;2023-04-25T13:25:45;9.80;;;5.60;;
7929;SDS011;4010;42.698;23.124;2023-04-25T13:28:12;10.90;;;6.30;;
7929;SDS011;4010;42.698;23.124;2023-04-25T13:30:39;13.40;;;6.60;;
7929;SDS011;4010;42.698;23.124;2023-04-25T13:33:07;4.57;;;2.90;;
7929;SDS011;4010;42.698;23.124;2023-04-25T13:35:35;2.83;;;2.23;;
7929;SDS011;4010;42.698;23.124;2023-04-25T13:38:03;5.00;;;2.30;;
7929;SDS011;4010;42.698;23.124;2023-04-25T13:40:30;2.43;;;1.37;;
7929;SDS011;4010;42.698;23.124;2023-04-25T13:42:58;2.43;;;1.70;;
7929;SDS011;4010;42.698;23.124;2023-04-25T13:45:25;2.40;;;2.00;;
7929;SDS011;4010;42.698;23.124;2023-04-25T13:47:51;2.43;;;1.70;;
7929;SDS011;4010;42.698;23.124;2023-04-25T13:50:19;2.10;;;1.80;;
7929;SDS011;4010;42.698;23.124;2023-04-25T13:52:47;1.00;;;0.90;;
7929;SDS011;4010;42.698;23.124;2023-04-25T13:55:13;2.10;;;1.30;;
7929;SDS011;4010;42.698;23.124;2023-04-25T13:57:40;1.10;;;0.80;;
7929;SDS011;4010;42.698;23.124;2023-04-25T14:00:08;1.17;;;0.80;;
7929;SDS011;4010;42.698;23.124;2023-04-25T14:02:35;3.67;;;1.73;;
7929;SDS011;4010;42.698;23.124;2023-04-25T14:05:03;2.53;;;0.80;;
7929;SDS011;4010;42.698;23.124;2023-04-25T14:07:33;2.87;;;0.87;;
7929;SDS011;4010;42.698;23.124;2023-04-25T14:10:00;1.07;;;0.67;;
7929;SDS011;4010;42.698;23.124;2023-04-25T14:12:27;0.60;;;0.60;;
7929;SDS011;4010;42.698;23.124;2023-04-25T14:14:53;2.23;;;0.60;;
7929;SDS011;4010;42.698;23.124;2023-04-25T14:17:20;0.63;;;0.60;;
7929;SDS011;4010;42.698;23.124;2023-04-25T14:19:47;0.60;;;0.60;;
7929;SDS011;4010;42.698;23.124;2023-04-25T14:22:13;0.97;;;0.60;;
7929;SDS011;4010;42.698;23.124;2023-04-25T14:24:41;0.60;;;0.60;;
7929;SDS011;4010;42.698;23.124;2023-04-25T14:27:08;0.77;;;0.77;;
7929;SDS011;4010;42.698;23.124;2023-04-25T14:29:35;0.73;;;0.73;;
7929;SDS011;4010;42.698;23.124;2023-04-25T14:32:02;0.63;;;0.63;;
7929;SDS011;4010;42.698;23.124;2023-04-25T14:34:30;0.43;;;0.43;;
7929;SDS011;4010;42.698;23.124;2023-04-25T14:36:56;0.77;;;0.77;;
7929;SDS011;4010;42.698;23.124;2023-04-25T14:39:23;0.80;;;0.80;;
7929;SDS011;4010;42.698;23.124;2023-04-25T14:41:51;0.73;;;0.73;;
7929;SDS011;4010;42.698;23.124;2023-04-25T14:44:18;0.80;;;0.80;;
7929;SDS011;4010;42.698;23.124;2023-04-25T14:46:45;5.93;;;0.90;;
7929;SDS011;4010;42.698;23.124;2023-04-25T14:49:11;0.77;;;0.60;;
7929;SDS011;4010;42.698;23.124;2023-04-25T14:51:38;2.20;;;1.40;;
7929;SDS011;4010;42.698;23.124;2023-04-25T14:54:05;1.13;;;1.03;;
7929;SDS011;4010;42.698;23.124;2023-04-25T14:56:31;3.23;;;1.40;;
7929;SDS011;4010;42.698;23.124;2023-04-25T14:58:59;1.33;;;1.13;;
7929;SDS011;4010;42.698;23.124;2023-04-25T15:01:26;4.87;;;2.70;;
7929;SDS011;4010;42.698;23.124;2023-04-25T15:03:53;5.03;;;2.40;;